BAW832 EGLL-EIDW
Flight info
| Callsign | BAW832 |
|---|---|
| Flight time | 0h 52m |
| Altitude | 24000 |
| Route | CPT L9 DIDZA N14 BIBPE/N0426F340 DCT OKTAD DCT MEDOG DCT LANON/N0378F240 L18 ABLIN ABLIN4L |
| Aircraft | A320/M-SDE3FGHIRWY/LB1 |
Departure
| Time | 2026-05-04 22:17 |
|---|---|
| Airport | London Heathrow Airport (EGLL) |
Arrival
| Time | 2026-05-04 23:10 |
|---|---|
| Airport | Dublin Airport (EIDW) |
| Time | Latitude | Longitude | Altitude | Speed | Heading |
|---|---|---|---|---|---|
| 2026-05-04 21:55 | 51.47187 | -0.48602 | 90 ft | 0 kts | 269° |
| 2026-05-04 22:07 | 51.47187 | -0.48564 | 89 ft | 4 kts | 269° |
| 2026-05-04 22:08 | 51.47187 | -0.48530 | 87 ft | 4 kts | 264° |
| 2026-05-04 22:08 | 51.47194 | -0.48490 | 89 ft | 4 kts | 228° |
| 2026-05-04 22:08 | 51.47206 | -0.48476 | 87 ft | 4 kts | 182° |
| 2026-05-04 22:08 | 51.47216 | -0.48475 | 87 ft | 2 kts | 179° |
| 2026-05-04 22:09 | 51.47217 | -0.48475 | 87 ft | 0 kts | 179° |
| 2026-05-04 22:12 | 51.47207 | -0.48475 | 87 ft | 7 kts | 180° |
| 2026-05-04 22:13 | 51.47089 | -0.48475 | 87 ft | 23 kts | 180° |
| 2026-05-04 22:13 | 51.46925 | -0.48473 | 87 ft | 22 kts | 180° |
| 2026-05-04 22:13 | 51.46829 | -0.48473 | 87 ft | 2 kts | 180° |
| 2026-05-04 22:13 | 51.46822 | -0.48473 | 87 ft | 0 kts | 180° |
| 2026-05-04 22:14 | 51.46820 | -0.48473 | 87 ft | 1 kts | 180° |
| 2026-05-04 22:14 | 51.46806 | -0.48472 | 87 ft | 6 kts | 178° |
| 2026-05-04 22:14 | 51.46732 | -0.48471 | 87 ft | 15 kts | 179° |
| 2026-05-04 22:15 | 51.46654 | -0.48525 | 87 ft | 12 kts | 255° |
| 2026-05-04 22:15 | 51.46651 | -0.48671 | 87 ft | 15 kts | 269° |
| 2026-05-04 22:15 | 51.46580 | -0.48778 | 88 ft | 17 kts | 193° |
| 2026-05-04 22:15 | 51.46483 | -0.48717 | 90 ft | 16 kts | 111° |
| 2026-05-04 22:16 | 51.46478 | -0.48636 | 88 ft | 0 kts | 89° |
| 2026-05-04 22:16 | 51.46478 | -0.48631 | 88 ft | 3 kts | 89° |
| 2026-05-04 22:17 | 51.46479 | -0.48234 | 89 ft | 74 kts | 90° |
| 2026-05-04 22:17 | 51.46483 | -0.47062 | 88 ft | 134 kts | 90° |
| 2026-05-04 22:17 | 51.46491 | -0.45383 | 372 ft | 157 kts | 90° |
| 2026-05-04 22:17 | 51.46492 | -0.43595 | 1001 ft | 164 kts | 90° |
| 2026-05-04 22:18 | 51.46144 | -0.41863 | 1774 ft | 168 kts | 119° |
| 2026-05-04 22:18 | 51.45638 | -0.40098 | 2239 ft | 185 kts | 103° |
| 2026-05-04 22:18 | 51.45129 | -0.38046 | 2610 ft | 213 kts | 122° |
| 2026-05-04 22:18 | 51.43969 | -0.36365 | 3111 ft | 242 kts | 152° |
| 2026-05-04 22:19 | 51.42266 | -0.35722 | 3740 ft | 263 kts | 181° |
| 2026-05-04 22:19 | 51.40483 | -0.36433 | 4694 ft | 269 kts | 208° |
| 2026-05-04 22:19 | 51.39158 | -0.38049 | 5505 ft | 272 kts | 230° |
| 2026-05-04 22:19 | 51.38260 | -0.40682 | 5863 ft | 270 kts | 256° |
| 2026-05-04 22:20 | 51.38220 | -0.43645 | 6008 ft | 268 kts | 283° |
| 2026-05-04 22:20 | 51.38896 | -0.46430 | 6048 ft | 269 kts | 295° |
| 2026-05-04 22:20 | 51.39713 | -0.49112 | 6252 ft | 267 kts | 296° |
| 2026-05-04 22:20 | 51.40551 | -0.51790 | 6699 ft | 270 kts | 296° |
| 2026-05-04 22:21 | 51.41402 | -0.54473 | 7214 ft | 271 kts | 296° |
| 2026-05-04 22:21 | 51.42263 | -0.57176 | 7775 ft | 274 kts | 296° |
| 2026-05-04 22:21 | 51.43134 | -0.59910 | 8336 ft | 276 kts | 296° |
| 2026-05-04 22:21 | 51.43951 | -0.62668 | 8965 ft | 280 kts | 289° |
| 2026-05-04 22:22 | 51.44668 | -0.65588 | 9892 ft | 284 kts | 291° |
| 2026-05-04 22:22 | 51.45425 | -0.68575 | 10471 ft | 299 kts | 291° |
| 2026-05-04 22:22 | 51.46249 | -0.71786 | 10781 ft | 321 kts | 291° |
| 2026-05-04 22:22 | 51.47115 | -0.75149 | 11397 ft | 331 kts | 291° |
| 2026-05-04 22:23 | 51.47999 | -0.78586 | 12138 ft | 336 kts | 291° |
| 2026-05-04 22:23 | 51.48891 | -0.82083 | 12783 ft | 341 kts | 291° |
| 2026-05-04 22:23 | 51.49789 | -0.85622 | 12998 ft | 343 kts | 291° |
| 2026-05-04 22:23 | 51.50688 | -0.89187 | 13287 ft | 347 kts | 291° |
| 2026-05-04 22:24 | 51.51596 | -0.92787 | 14103 ft | 349 kts | 291° |
| 2026-05-04 22:24 | 51.52511 | -0.96413 | 14808 ft | 352 kts | 291° |
| 2026-05-04 22:24 | 51.53424 | -1.00025 | 15495 ft | 355 kts | 291° |
| 2026-05-04 22:24 | 51.54356 | -1.03716 | 16170 ft | 359 kts | 291° |
| 2026-05-04 22:25 | 51.55297 | -1.07451 | 16855 ft | 362 kts | 290° |
| 2026-05-04 22:25 | 51.56241 | -1.11215 | 17546 ft | 365 kts | 290° |
| 2026-05-04 22:25 | 51.57192 | -1.15020 | 18239 ft | 369 kts | 290° |
| 2026-05-04 22:25 | 51.58153 | -1.18862 | 18863 ft | 372 kts | 290° |
| 2026-05-04 22:26 | 51.59123 | -1.22743 | 19484 ft | 376 kts | 290° |
| 2026-05-04 22:26 | 51.60086 | -1.26606 | 20107 ft | 379 kts | 290° |
| 2026-05-04 22:26 | 51.61068 | -1.30553 | 20736 ft | 382 kts | 290° |
| 2026-05-04 22:26 | 51.62057 | -1.34548 | 21342 ft | 386 kts | 290° |
| 2026-05-04 22:27 | 51.63053 | -1.38573 | 21941 ft | 389 kts | 290° |
| 2026-05-04 22:27 | 51.64058 | -1.42636 | 22540 ft | 392 kts | 290° |
| 2026-05-04 22:27 | 51.65069 | -1.46732 | 23159 ft | 395 kts | 289° |
| 2026-05-04 22:27 | 51.66089 | -1.50867 | 23729 ft | 399 kts | 289° |
| 2026-05-04 22:28 | 51.67113 | -1.55032 | 24226 ft | 402 kts | 289° |
| 2026-05-04 22:28 | 51.68141 | -1.59233 | 24703 ft | 404 kts | 289° |
| 2026-05-04 22:28 | 51.69176 | -1.63459 | 25182 ft | 407 kts | 289° |
| 2026-05-04 22:28 | 51.70144 | -1.67757 | 25648 ft | 408 kts | 283° |
| 2026-05-04 22:29 | 51.70708 | -1.72238 | 26098 ft | 408 kts | 274° |
| 2026-05-04 22:29 | 51.71034 | -1.76741 | 26545 ft | 411 kts | 274° |
| 2026-05-04 22:29 | 51.71360 | -1.81335 | 26994 ft | 414 kts | 274° |
| 2026-05-04 22:29 | 51.71751 | -1.85950 | 27425 ft | 418 kts | 279° |
| 2026-05-04 22:30 | 51.72418 | -1.90531 | 27853 ft | 421 kts | 281° |
| 2026-05-04 22:30 | 51.73107 | -1.95141 | 28278 ft | 424 kts | 281° |
| 2026-05-04 22:30 | 51.73800 | -1.99776 | 28699 ft | 427 kts | 281° |
| 2026-05-04 22:30 | 51.74497 | -2.04449 | 29113 ft | 430 kts | 281° |
| 2026-05-04 22:31 | 51.75185 | -2.09087 | 29507 ft | 432 kts | 280° |
| 2026-05-04 22:31 | 51.75883 | -2.13832 | 29924 ft | 435 kts | 280° |
| 2026-05-04 22:31 | 51.76581 | -2.18594 | 30301 ft | 438 kts | 280° |
| 2026-05-04 22:31 | 51.77283 | -2.23393 | 30647 ft | 440 kts | 281° |
| 2026-05-04 22:32 | 51.77988 | -2.28218 | 30980 ft | 443 kts | 281° |
| 2026-05-04 22:32 | 51.78695 | -2.33079 | 31311 ft | 446 kts | 281° |
| 2026-05-04 22:32 | 51.79400 | -2.37964 | 31642 ft | 448 kts | 281° |
| 2026-05-04 22:32 | 51.80108 | -2.42882 | 31967 ft | 450 kts | 281° |
| 2026-05-04 22:33 | 51.80813 | -2.47807 | 32423 ft | 449 kts | 281° |
| 2026-05-04 22:33 | 51.81516 | -2.52721 | 32875 ft | 449 kts | 281° |
| 2026-05-04 22:33 | 51.82206 | -2.57562 | 33316 ft | 448 kts | 281° |
| 2026-05-04 22:33 | 51.82887 | -2.62470 | 33772 ft | 448 kts | 281° |
| 2026-05-04 22:34 | 51.83557 | -2.67400 | 34024 ft | 449 kts | 281° |
| 2026-05-04 22:34 | 51.84853 | -2.77088 | 34063 ft | 436 kts | 281° |
| 2026-05-04 22:35 | 51.86123 | -2.86649 | 34062 ft | 434 kts | 281° |
| 2026-05-04 22:35 | 51.87389 | -2.96142 | 34062 ft | 435 kts | 281° |
| 2026-05-04 22:36 | 51.88661 | -3.05717 | 34042 ft | 435 kts | 281° |
| 2026-05-04 22:36 | 51.89924 | -3.15303 | 34051 ft | 436 kts | 281° |
| 2026-05-04 22:37 | 51.91173 | -3.24905 | 34066 ft | 436 kts | 281° |
| 2026-05-04 22:37 | 51.92417 | -3.34521 | 34072 ft | 436 kts | 281° |
| 2026-05-04 22:38 | 51.93644 | -3.44081 | 34074 ft | 437 kts | 281° |
| 2026-05-04 22:38 | 51.95426 | -3.53472 | 34070 ft | 438 kts | 296° |
| 2026-05-04 22:39 | 51.98935 | -3.61502 | 34071 ft | 439 kts | 314° |
| 2026-05-04 22:39 | 52.03144 | -3.68593 | 34069 ft | 439 kts | 314° |
| 2026-05-04 22:40 | 52.07374 | -3.75765 | 34070 ft | 440 kts | 314° |
| 2026-05-04 22:40 | 52.11633 | -3.83015 | 34075 ft | 450 kts | 314° |
| 2026-05-04 22:40 | 52.13800 | -3.86710 | 33675 ft | 452 kts | 314° |
| 2026-05-04 22:41 | 52.15985 | -3.90442 | 32323 ft | 455 kts | 314° |
| 2026-05-04 22:41 | 52.18139 | -3.94130 | 31613 ft | 441 kts | 314° |
| 2026-05-04 22:41 | 52.20208 | -3.97679 | 31154 ft | 424 kts | 314° |
| 2026-05-04 22:41 | 52.22205 | -4.01106 | 30645 ft | 410 kts | 314° |
| 2026-05-04 22:42 | 52.24110 | -4.04378 | 30157 ft | 398 kts | 314° |
| 2026-05-04 22:42 | 52.25983 | -4.07603 | 29639 ft | 388 kts | 314° |
| 2026-05-04 22:42 | 52.27847 | -4.10813 | 29173 ft | 388 kts | 314° |
| 2026-05-04 22:42 | 52.29703 | -4.14005 | 28707 ft | 388 kts | 314° |
| 2026-05-04 22:43 | 52.31557 | -4.17199 | 28253 ft | 387 kts | 314° |
| 2026-05-04 22:43 | 52.33405 | -4.20397 | 27814 ft | 387 kts | 314° |
| 2026-05-04 22:43 | 52.35250 | -4.23588 | 27354 ft | 386 kts | 314° |
| 2026-05-04 22:43 | 52.37069 | -4.26734 | 26939 ft | 385 kts | 314° |
| 2026-05-04 22:44 | 52.38904 | -4.29915 | 26513 ft | 384 kts | 314° |
| 2026-05-04 22:44 | 52.39961 | -4.31751 | 26261 ft | 383 kts | 314° |
| 2026-05-04 22:44 | 52.41783 | -4.34924 | 25835 ft | 381 kts | 314° |
| 2026-05-04 22:44 | 52.43602 | -4.38085 | 25417 ft | 380 kts | 314° |
| 2026-05-04 22:45 | 52.45410 | -4.41229 | 25000 ft | 378 kts | 314° |
| 2026-05-04 22:45 | 52.49003 | -4.47497 | 24143 ft | 376 kts | 314° |
| 2026-05-04 22:45 | 52.50789 | -4.50622 | 23712 ft | 375 kts | 314° |
| 2026-05-04 22:46 | 52.52569 | -4.53742 | 23220 ft | 373 kts | 314° |
| 2026-05-04 22:46 | 52.54335 | -4.56845 | 22767 ft | 370 kts | 314° |
| 2026-05-04 22:46 | 52.56061 | -4.59882 | 22329 ft | 367 kts | 314° |
| 2026-05-04 22:46 | 52.57798 | -4.62939 | 21866 ft | 365 kts | 314° |
| 2026-05-04 22:47 | 52.59524 | -4.65976 | 21423 ft | 362 kts | 314° |
| 2026-05-04 22:47 | 52.61238 | -4.68998 | 20955 ft | 360 kts | 314° |
| 2026-05-04 22:47 | 52.62942 | -4.72008 | 20495 ft | 359 kts | 314° |
| 2026-05-04 22:47 | 52.64639 | -4.75011 | 20022 ft | 357 kts | 314° |
| 2026-05-04 22:48 | 52.66327 | -4.77999 | 19559 ft | 356 kts | 314° |
| 2026-05-04 22:48 | 52.68010 | -4.80982 | 19096 ft | 355 kts | 314° |
| 2026-05-04 22:48 | 52.69663 | -4.83914 | 18636 ft | 354 kts | 314° |
| 2026-05-04 22:48 | 52.71335 | -4.86886 | 18133 ft | 352 kts | 313° |
| 2026-05-04 22:49 | 52.72994 | -4.89839 | 17658 ft | 350 kts | 313° |
| 2026-05-04 22:49 | 52.74639 | -4.92773 | 17202 ft | 347 kts | 314° |
| 2026-05-04 22:49 | 52.76272 | -4.95685 | 16742 ft | 344 kts | 313° |
| 2026-05-04 22:49 | 52.77893 | -4.98571 | 16284 ft | 342 kts | 314° |
| 2026-05-04 22:50 | 52.79504 | -5.01440 | 15828 ft | 339 kts | 314° |
| 2026-05-04 22:50 | 52.81079 | -5.04252 | 15298 ft | 337 kts | 311° |
| 2026-05-04 22:50 | 52.82663 | -5.07089 | 14915 ft | 333 kts | 311° |
| 2026-05-04 22:50 | 52.84229 | -5.09899 | 14486 ft | 331 kts | 311° |
| 2026-05-04 22:51 | 52.85789 | -5.12702 | 14038 ft | 330 kts | 311° |
| 2026-05-04 22:51 | 52.87340 | -5.15492 | 13564 ft | 329 kts | 311° |
| 2026-05-04 22:51 | 52.88880 | -5.18267 | 13117 ft | 326 kts | 311° |
| 2026-05-04 22:51 | 52.90407 | -5.21019 | 12676 ft | 323 kts | 312° |
| 2026-05-04 22:52 | 52.91919 | -5.23748 | 12242 ft | 320 kts | 312° |
| 2026-05-04 22:52 | 52.93423 | -5.26457 | 11815 ft | 318 kts | 312° |
| 2026-05-04 22:52 | 52.94884 | -5.29088 | 11389 ft | 308 kts | 312° |
| 2026-05-04 22:52 | 52.96318 | -5.31680 | 10995 ft | 304 kts | 312° |
| 2026-05-04 22:53 | 52.97741 | -5.34266 | 10567 ft | 303 kts | 312° |
| 2026-05-04 22:53 | 52.99161 | -5.36847 | 10198 ft | 301 kts | 312° |
| 2026-05-04 22:53 | 53.00546 | -5.39361 | 10070 ft | 290 kts | 312° |
| 2026-05-04 22:53 | 53.01894 | -5.41808 | 9850 ft | 283 kts | 312° |
| 2026-05-04 22:54 | 53.03201 | -5.44180 | 9691 ft | 275 kts | 312° |
| 2026-05-04 22:54 | 53.04483 | -5.46511 | 9373 ft | 272 kts | 312° |
| 2026-05-04 22:54 | 53.05757 | -5.48832 | 9016 ft | 269 kts | 313° |
| 2026-05-04 22:54 | 53.07172 | -5.50829 | 8442 ft | 266 kts | 326° |
| 2026-05-04 22:55 | 53.08701 | -5.52417 | 8033 ft | 262 kts | 327° |
| 2026-05-04 22:55 | 53.10239 | -5.54025 | 7677 ft | 260 kts | 327° |
| 2026-05-04 22:55 | 53.11764 | -5.55627 | 7330 ft | 260 kts | 326° |
| 2026-05-04 22:55 | 53.13289 | -5.57230 | 7093 ft | 256 kts | 326° |
| 2026-05-04 22:56 | 53.14792 | -5.58814 | 7101 ft | 256 kts | 326° |
| 2026-05-04 22:56 | 53.16295 | -5.60400 | 7100 ft | 256 kts | 326° |
| 2026-05-04 22:56 | 53.17808 | -5.61954 | 7099 ft | 252 kts | 332° |
| 2026-05-04 22:56 | 53.19453 | -5.62697 | 7098 ft | 241 kts | 356° |
| 2026-05-04 22:57 | 53.21091 | -5.62244 | 7098 ft | 241 kts | 20° |
| 2026-05-04 22:57 | 53.22501 | -5.60776 | 7105 ft | 244 kts | 34° |
| 2026-05-04 22:57 | 53.23862 | -5.59080 | 7102 ft | 244 kts | 34° |
| 2026-05-04 22:57 | 53.25225 | -5.57386 | 7100 ft | 244 kts | 34° |
| 2026-05-04 22:58 | 53.26584 | -5.55697 | 7101 ft | 244 kts | 34° |
| 2026-05-04 22:58 | 53.27946 | -5.54010 | 7100 ft | 244 kts | 33° |
| 2026-05-04 22:58 | 53.29423 | -5.52673 | 7101 ft | 240 kts | 17° |
| 2026-05-04 22:58 | 53.31034 | -5.51992 | 7102 ft | 239 kts | 9° |
| 2026-05-04 22:59 | 53.32658 | -5.51396 | 7100 ft | 239 kts | 10° |
| 2026-05-04 22:59 | 53.34255 | -5.50800 | 7102 ft | 238 kts | 10° |
| 2026-05-04 22:59 | 53.35874 | -5.50196 | 7103 ft | 238 kts | 10° |
| 2026-05-04 22:59 | 53.37491 | -5.49594 | 7104 ft | 238 kts | 10° |
| 2026-05-04 23:00 | 53.39111 | -5.48997 | 7107 ft | 238 kts | 8° |
| 2026-05-04 23:00 | 53.40744 | -5.48867 | 7105 ft | 235 kts | 351° |
| 2026-05-04 23:00 | 53.42351 | -5.49374 | 7108 ft | 234 kts | 346° |
| 2026-05-04 23:00 | 53.43844 | -5.50397 | 7037 ft | 232 kts | 322° |
| 2026-05-04 23:01 | 53.44889 | -5.52398 | 6919 ft | 230 kts | 296° |
| 2026-05-04 23:01 | 53.45321 | -5.54963 | 6797 ft | 230 kts | 280° |
| 2026-05-04 23:01 | 53.45584 | -5.57576 | 6672 ft | 230 kts | 281° |
| 2026-05-04 23:01 | 53.45848 | -5.60216 | 6552 ft | 229 kts | 281° |
| 2026-05-04 23:02 | 53.46110 | -5.62843 | 6417 ft | 228 kts | 281° |
| 2026-05-04 23:02 | 53.46371 | -5.65468 | 6290 ft | 228 kts | 281° |
| 2026-05-04 23:02 | 53.46630 | -5.68085 | 6144 ft | 227 kts | 280° |
| 2026-05-04 23:02 | 53.46886 | -5.70695 | 6033 ft | 226 kts | 280° |
| 2026-05-04 23:03 | 53.47144 | -5.73300 | 5892 ft | 226 kts | 280° |
| 2026-05-04 23:03 | 53.47401 | -5.75896 | 5764 ft | 225 kts | 280° |
| 2026-05-04 23:03 | 53.47611 | -5.78462 | 5639 ft | 225 kts | 272° |
| 2026-05-04 23:03 | 53.47373 | -5.81063 | 5312 ft | 229 kts | 251° |
| 2026-05-04 23:04 | 53.46565 | -5.83378 | 4971 ft | 233 kts | 231° |
| 2026-05-04 23:04 | 53.45460 | -5.85351 | 4506 ft | 231 kts | 229° |
| 2026-05-04 23:04 | 53.44365 | -5.87290 | 4219 ft | 226 kts | 229° |
| 2026-05-04 23:04 | 53.43312 | -5.89166 | 4087 ft | 217 kts | 229° |
| 2026-05-04 23:05 | 53.42302 | -5.90964 | 3983 ft | 207 kts | 229° |
| 2026-05-04 23:05 | 53.41325 | -5.92727 | 3896 ft | 206 kts | 232° |
| 2026-05-04 23:05 | 53.40627 | -5.94744 | 3779 ft | 203 kts | 254° |
| 2026-05-04 23:05 | 53.40438 | -5.97047 | 3571 ft | 199 kts | 276° |
| 2026-05-04 23:06 | 53.40565 | -5.99337 | 3321 ft | 194 kts | 278° |
| 2026-05-04 23:06 | 53.40696 | -6.01545 | 3057 ft | 187 kts | 278° |
| 2026-05-04 23:06 | 53.40817 | -6.03637 | 2841 ft | 175 kts | 278° |
| 2026-05-04 23:06 | 53.40930 | -6.05605 | 2579 ft | 165 kts | 278° |
| 2026-05-04 23:07 | 53.41034 | -6.07441 | 2361 ft | 152 kts | 278° |
| 2026-05-04 23:07 | 53.41131 | -6.09140 | 2161 ft | 143 kts | 278° |
| 2026-05-04 23:07 | 53.41223 | -6.10749 | 1970 ft | 139 kts | 278° |
| 2026-05-04 23:07 | 53.41313 | -6.12352 | 1777 ft | 138 kts | 278° |
| 2026-05-04 23:08 | 53.41404 | -6.13950 | 1573 ft | 137 kts | 278° |
| 2026-05-04 23:08 | 53.41497 | -6.15539 | 1372 ft | 137 kts | 277° |
| 2026-05-04 23:08 | 53.41580 | -6.17128 | 1159 ft | 137 kts | 277° |
| 2026-05-04 23:08 | 53.41671 | -6.18711 | 974 ft | 136 kts | 276° |
| 2026-05-04 23:09 | 53.41756 | -6.20293 | 797 ft | 136 kts | 276° |
| 2026-05-04 23:09 | 53.41843 | -6.21866 | 602 ft | 136 kts | 276° |
| 2026-05-04 23:09 | 53.41934 | -6.23434 | 410 ft | 135 kts | 276° |
| 2026-05-04 23:09 | 53.42018 | -6.24983 | 259 ft | 135 kts | 277° |
| 2026-05-04 23:10 | 53.42102 | -6.26427 | 212 ft | 105 kts | 275° |
| 2026-05-04 23:10 | 53.42152 | -6.27354 | 211 ft | 55 kts | 275° |
| 2026-05-04 23:10 | 53.42185 | -6.27751 | 210 ft | 25 kts | 283° |
| 2026-05-04 23:10 | 53.42242 | -6.27968 | 216 ft | 18 kts | 300° |
| 2026-05-04 23:11 | 53.42297 | -6.28107 | 211 ft | 14 kts | 322° |
| 2026-05-04 23:11 | 53.42359 | -6.28033 | 211 ft | 16 kts | 97° |
| 2026-05-04 23:11 | 53.42351 | -6.27828 | 221 ft | 20 kts | 94° |
| 2026-05-04 23:11 | 53.42337 | -6.27590 | 213 ft | 20 kts | 96° |
| 2026-05-04 23:12 | 53.42323 | -6.27346 | 211 ft | 23 kts | 96° |
| 2026-05-04 23:12 | 53.42309 | -6.27083 | 216 ft | 22 kts | 95° |
| 2026-05-04 23:12 | 53.42296 | -6.26838 | 211 ft | 20 kts | 95° |
| 2026-05-04 23:12 | 53.42278 | -6.26610 | 221 ft | 21 kts | 97° |
| 2026-05-04 23:13 | 53.42268 | -6.26342 | 211 ft | 25 kts | 95° |
| 2026-05-04 23:13 | 53.42252 | -6.26033 | 211 ft | 28 kts | 96° |
| 2026-05-04 23:13 | 53.42236 | -6.25739 | 218 ft | 23 kts | 95° |
| 2026-05-04 23:13 | 53.42219 | -6.25445 | 216 ft | 27 kts | 96° |
| 2026-05-04 23:14 | 53.42205 | -6.25144 | 211 ft | 17 kts | 93° |
| 2026-05-04 23:14 | 53.42252 | -6.24960 | 211 ft | 19 kts | 47° |
| 2026-05-04 23:14 | 53.42351 | -6.24786 | 216 ft | 15 kts | 46° |
| 2026-05-04 23:14 | 53.42404 | -6.24690 | 211 ft | 13 kts | 51° |
| 2026-05-04 23:15 | 53.42447 | -6.24547 | 215 ft | 10 kts | 63° |
| 2026-05-04 23:15 | 53.42491 | -6.24524 | 215 ft | 9 kts | 357° |
| 2026-05-04 23:15 | 53.42529 | -6.24532 | 216 ft | 0 kts | 352° |
| 2026-05-04 23:15 | 53.42542 | -6.24534 | 216 ft | 4 kts | 353° |
| 2026-05-04 23:16 | 53.42556 | -6.24537 | 214 ft | 0 kts | 353° |